sensor_id;sensor_type;location;lat;lon;timestamp;temperature;humidity
40255;DHT22;25973;52.368;4.940;2022-09-16T00:01:19;14.90;99.90
40255;DHT22;25973;52.368;4.940;2022-09-16T00:03:45;14.90;99.90
40255;DHT22;25973;52.368;4.940;2022-09-16T00:06:21;14.90;99.90
40255;DHT22;25973;52.368;4.940;2022-09-16T00:08:47;14.90;99.90
40255;DHT22;25973;52.368;4.940;2022-09-16T00:11:13;14.80;99.90
40255;DHT22;25973;52.368;4.940;2022-09-16T00:13:39;14.80;99.90
40255;DHT22;25973;52.368;4.940;2022-09-16T00:16:17;14.80;99.90
40255;DHT22;25973;52.368;4.940;2022-09-16T00:18:42;14.80;99.90
40255;DHT22;25973;52.368;4.940;2022-09-16T00:21:09;14.80;99.90
40255;DHT22;25973;52.368;4.940;2022-09-16T00:23:35;14.80;99.90
40255;DHT22;25973;52.368;4.940;2022-09-16T00:26:00;14.80;99.90
40255;DHT22;25973;52.368;4.940;2022-09-16T00:28:26;14.80;99.90
40255;DHT22;25973;52.368;4.940;2022-09-16T00:30:52;14.80;99.90
40255;DHT22;25973;52.368;4.940;2022-09-16T00:33:18;14.80;99.90
40255;DHT22;25973;52.368;4.940;2022-09-16T00:35:45;14.80;99.90
40255;DHT22;25973;52.368;4.940;2022-09-16T00:38:10;14.80;99.90
40255;DHT22;25973;52.368;4.940;2022-09-16T00:40:46;14.80;99.90
40255;DHT22;25973;52.368;4.940;2022-09-16T00:43:13;14.80;99.90
40255;DHT22;25973;52.368;4.940;2022-09-16T00:45:40;14.80;99.90
40255;DHT22;25973;52.368;4.940;2022-09-16T00:48:08;14.70;99.90
40255;DHT22;25973;52.368;4.940;2022-09-16T00:50:45;14.70;99.90
40255;DHT22;25973;52.368;4.940;2022-09-16T00:53:20;14.70;99.90
40255;DHT22;25973;52.368;4.940;2022-09-16T00:55:49;14.60;99.90
40255;DHT22;25973;52.368;4.940;2022-09-16T00:58:43;14.60;99.90
40255;DHT22;25973;52.368;4.940;2022-09-16T01:01:11;14.60;99.90
40255;DHT22;25973;52.368;4.940;2022-09-16T01:03:44;14.50;99.90
40255;DHT22;25973;52.368;4.940;2022-09-16T01:06:12;14.50;99.90
40255;DHT22;25973;52.368;4.940;2022-09-16T01:08:39;14.50;99.90
40255;DHT22;25973;52.368;4.940;2022-09-16T01:11:06;14.50;99.90
40255;DHT22;25973;52.368;4.940;2022-09-16T01:13:31;14.50;99.90
40255;DHT22;25973;52.368;4.940;2022-09-16T01:15:58;14.50;99.90
40255;DHT22;25973;52.368;4.940;2022-09-16T01:21:44;14.60;99.90
40255;DHT22;25973;52.368;4.940;2022-09-16T01:27:44;14.50;99.90
40255;DHT22;25973;52.368;4.940;2022-09-16T01:30:28;14.50;99.90
40255;DHT22;25973;52.368;4.940;2022-09-16T01:33:03;14.50;99.90
40255;DHT22;25973;52.368;4.940;2022-09-16T01:41:01;14.50;99.90
40255;DHT22;25973;52.368;4.940;2022-09-16T01:49:01;14.40;99.90
40255;DHT22;25973;52.368;4.940;2022-09-16T01:51:47;14.40;99.90
40255;DHT22;25973;52.368;4.940;2022-09-16T01:54:23;14.40;99.90
40255;DHT22;25973;52.368;4.940;2022-09-16T01:57:06;14.50;99.90
40255;DHT22;25973;52.368;4.940;2022-09-16T01:59:51;14.40;99.90
40255;DHT22;25973;52.368;4.940;2022-09-16T02:02:34;14.40;99.90
40255;DHT22;25973;52.368;4.940;2022-09-16T02:05:05;14.50;99.90
40255;DHT22;25973;52.368;4.940;2022-09-16T02:07:35;14.50;99.90
40255;DHT22;25973;52.368;4.940;2022-09-16T02:10:06;14.50;99.90
40255;DHT22;25973;52.368;4.940;2022-09-16T02:12:37;14.50;99.90
40255;DHT22;25973;52.368;4.940;2022-09-16T02:15:07;14.40;99.90
40255;DHT22;25973;52.368;4.940;2022-09-16T02:17:38;14.30;99.90
40255;DHT22;25973;52.368;4.940;2022-09-16T02:20:19;14.30;99.90
40255;DHT22;25973;52.368;4.940;2022-09-16T02:22:51;14.20;99.90
40255;DHT22;25973;52.368;4.940;2022-09-16T02:25:18;14.20;99.90
40255;DHT22;25973;52.368;4.940;2022-09-16T02:27:46;14.20;99.90
40255;DHT22;25973;52.368;4.940;2022-09-16T02:30:15;14.10;99.90
40255;DHT22;25973;52.368;4.940;2022-09-16T02:32:48;14.20;99.90
40255;DHT22;25973;52.368;4.940;2022-09-16T02:35:18;14.10;99.90
40255;DHT22;25973;52.368;4.940;2022-09-16T02:38:03;14.20;99.90
40255;DHT22;25973;52.368;4.940;2022-09-16T02:40:39;14.20;99.90
40255;DHT22;25973;52.368;4.940;2022-09-16T02:43:06;14.10;99.90
40255;DHT22;25973;52.368;4.940;2022-09-16T02:48:26;14.10;99.90
40255;DHT22;25973;52.368;4.940;2022-09-16T02:51:22;14.10;99.90
40255;DHT22;25973;52.368;4.940;2022-09-16T02:54:19;14.10;99.90
40255;DHT22;25973;52.368;4.940;2022-09-16T02:56:47;14.10;99.90
40255;DHT22;25973;52.368;4.940;2022-09-16T02:59:14;14.10;99.90
40255;DHT22;25973;52.368;4.940;2022-09-16T03:01:42;14.10;99.90
40255;DHT22;25973;52.368;4.940;2022-09-16T03:04:14;14.10;99.90
40255;DHT22;25973;52.368;4.940;2022-09-16T03:06:40;14.10;99.90
40255;DHT22;25973;52.368;4.940;2022-09-16T03:09:10;14.10;99.90
40255;DHT22;25973;52.368;4.940;2022-09-16T03:17:51;14.00;99.90
40255;DHT22;25973;52.368;4.940;2022-09-16T03:23:30;13.90;99.90
40255;DHT22;25973;52.368;4.940;2022-09-16T03:31:31;13.90;99.90
40255;DHT22;25973;52.368;4.940;2022-09-16T03:34:06;13.80;99.90
40255;DHT22;25973;52.368;4.940;2022-09-16T03:36:36;13.80;99.90
40255;DHT22;25973;52.368;4.940;2022-09-16T03:39:04;13.80;99.90
40255;DHT22;25973;52.368;4.940;2022-09-16T03:41:31;13.80;99.90
40255;DHT22;25973;52.368;4.940;2022-09-16T03:43:58;13.80;99.90
40255;DHT22;25973;52.368;4.940;2022-09-16T03:46:26;13.80;99.90
40255;DHT22;25973;52.368;4.940;2022-09-16T03:48:56;13.80;99.90
40255;DHT22;25973;52.368;4.940;2022-09-16T03:51:22;13.80;99.90
40255;DHT22;25973;52.368;4.940;2022-09-16T03:53:49;13.80;99.90
40255;DHT22;25973;52.368;4.940;2022-09-16T03:56:15;13.80;99.90
40255;DHT22;25973;52.368;4.940;2022-09-16T03:58:40;13.80;99.90
40255;DHT22;25973;52.368;4.940;2022-09-16T04:01:06;13.80;99.90
40255;DHT22;25973;52.368;4.940;2022-09-16T04:03:31;13.80;99.90
40255;DHT22;25973;52.368;4.940;2022-09-16T04:05:57;13.80;99.90
40255;DHT22;25973;52.368;4.940;2022-09-16T04:08:23;13.80;99.90
40255;DHT22;25973;52.368;4.940;2022-09-16T04:11:00;13.80;99.90
40255;DHT22;25973;52.368;4.940;2022-09-16T04:13:28;13.80;99.90
40255;DHT22;25973;52.368;4.940;2022-09-16T04:15:54;13.80;99.90
40255;DHT22;25973;52.368;4.940;2022-09-16T04:18:19;13.80;99.90
40255;DHT22;25973;52.368;4.940;2022-09-16T04:20:45;13.80;99.90
40255;DHT22;25973;52.368;4.940;2022-09-16T04:23:11;13.80;99.90
40255;DHT22;25973;52.368;4.940;2022-09-16T04:25:36;13.90;99.90
40255;DHT22;25973;52.368;4.940;2022-09-16T04:28:02;13.80;99.90
40255;DHT22;25973;52.368;4.940;2022-09-16T04:30:28;13.90;99.90
40255;DHT22;25973;52.368;4.940;2022-09-16T04:32:54;13.90;99.90
40255;DHT22;25973;52.368;4.940;2022-09-16T04:35:21;13.90;99.90
40255;DHT22;25973;52.368;4.940;2022-09-16T04:37:47;14.00;99.90
40255;DHT22;25973;52.368;4.940;2022-09-16T04:40:13;14.00;99.90
40255;DHT22;25973;52.368;4.940;2022-09-16T04:42:38;14.10;99.90
40255;DHT22;25973;52.368;4.940;2022-09-16T04:45:04;14.10;99.90
40255;DHT22;25973;52.368;4.940;2022-09-16T04:47:30;14.10;99.90
40255;DHT22;25973;52.368;4.940;2022-09-16T04:49:56;14.10;99.90
40255;DHT22;25973;52.368;4.940;2022-09-16T04:52:21;14.10;99.90
40255;DHT22;25973;52.368;4.940;2022-09-16T04:54:47;14.20;99.90
40255;DHT22;25973;52.368;4.940;2022-09-16T04:57:12;14.20;99.90
40255;DHT22;25973;52.368;4.940;2022-09-16T04:59:38;14.20;99.90
40255;DHT22;25973;52.368;4.940;2022-09-16T05:02:03;14.20;99.90
40255;DHT22;25973;52.368;4.940;2022-09-16T05:04:29;14.20;99.90
40255;DHT22;25973;52.368;4.940;2022-09-16T05:06:55;14.20;99.90
40255;DHT22;25973;52.368;4.940;2022-09-16T05:09:20;14.20;99.90
40255;DHT22;25973;52.368;4.940;2022-09-16T05:11:47;14.20;99.90
40255;DHT22;25973;52.368;4.940;2022-09-16T05:14:15;14.20;99.90
40255;DHT22;25973;52.368;4.940;2022-09-16T05:16:41;14.20;99.90
40255;DHT22;25973;52.368;4.940;2022-09-16T05:19:07;14.20;99.90
40255;DHT22;25973;52.368;4.940;2022-09-16T05:21:35;14.10;99.90
40255;DHT22;25973;52.368;4.940;2022-09-16T05:24:06;14.10;99.90
40255;DHT22;25973;52.368;4.940;2022-09-16T05:26:38;14.10;99.90
40255;DHT22;25973;52.368;4.940;2022-09-16T05:29:07;14.00;99.90
40255;DHT22;25973;52.368;4.940;2022-09-16T05:31:35;14.00;99.90
40255;DHT22;25973;52.368;4.940;2022-09-16T05:34:13;14.00;99.90
40255;DHT22;25973;52.368;4.940;2022-09-16T05:36:39;14.00;99.90
40255;DHT22;25973;52.368;4.940;2022-09-16T05:39:09;14.00;99.90
40255;DHT22;25973;52.368;4.940;2022-09-16T05:41:36;14.00;99.90
40255;DHT22;25973;52.368;4.940;2022-09-16T05:44:01;14.10;99.90
40255;DHT22;25973;52.368;4.940;2022-09-16T05:46:27;14.10;99.90
40255;DHT22;25973;52.368;4.940;2022-09-16T05:48:54;14.10;99.90
40255;DHT22;25973;52.368;4.940;2022-09-16T05:51:21;14.10;99.90
40255;DHT22;25973;52.368;4.940;2022-09-16T05:53:48;14.20;99.90
40255;DHT22;25973;52.368;4.940;2022-09-16T05:56:16;14.10;99.90
40255;DHT22;25973;52.368;4.940;2022-09-16T05:58:43;14.10;99.90
40255;DHT22;25973;52.368;4.940;2022-09-16T06:01:17;14.00;99.90
40255;DHT22;25973;52.368;4.940;2022-09-16T06:03:44;14.00;99.90
40255;DHT22;25973;52.368;4.940;2022-09-16T06:08:47;13.80;99.90
40255;DHT22;25973;52.368;4.940;2022-09-16T06:11:13;13.70;99.90
40255;DHT22;25973;52.368;4.940;2022-09-16T06:13:39;13.80;99.90
40255;DHT22;25973;52.368;4.940;2022-09-16T06:16:05;13.70;99.90
40255;DHT22;25973;52.368;4.940;2022-09-16T06:18:31;13.60;99.90
40255;DHT22;25973;52.368;4.940;2022-09-16T06:21:02;13.50;99.90
40255;DHT22;25973;52.368;4.940;2022-09-16T06:23:28;13.50;99.90
40255;DHT22;25973;52.368;4.940;2022-09-16T06:26:02;13.50;99.90
40255;DHT22;25973;52.368;4.940;2022-09-16T06:28:28;13.50;99.90
40255;DHT22;25973;52.368;4.940;2022-09-16T06:31:06;13.60;99.90
40255;DHT22;25973;52.368;4.940;2022-09-16T06:33:36;13.60;99.90
40255;DHT22;25973;52.368;4.940;2022-09-16T06:36:12;13.80;99.90
40255;DHT22;25973;52.368;4.940;2022-09-16T06:38:39;13.90;99.90
40255;DHT22;25973;52.368;4.940;2022-09-16T06:41:06;13.90;99.90
40255;DHT22;25973;52.368;4.940;2022-09-16T06:43:33;14.00;99.90
40255;DHT22;25973;52.368;4.940;2022-09-16T06:46:00;14.10;99.90
40255;DHT22;25973;52.368;4.940;2022-09-16T06:48:27;14.10;99.90
40255;DHT22;25973;52.368;4.940;2022-09-16T06:51:07;14.30;99.90
40255;DHT22;25973;52.368;4.940;2022-09-16T06:53:34;14.40;99.90
40255;DHT22;25973;52.368;4.940;2022-09-16T06:56:04;14.60;99.90
40255;DHT22;25973;52.368;4.940;2022-09-16T06:58:34;14.80;99.90
40255;DHT22;25973;52.368;4.940;2022-09-16T07:01:05;15.00;99.90
40255;DHT22;25973;52.368;4.940;2022-09-16T07:03:31;15.10;99.90
40255;DHT22;25973;52.368;4.940;2022-09-16T07:06:00;15.40;99.90
40255;DHT22;25973;52.368;4.940;2022-09-16T07:08:33;15.60;99.90
40255;DHT22;25973;52.368;4.940;2022-09-16T07:11:11;16.00;99.90
40255;DHT22;25973;52.368;4.940;2022-09-16T07:13:37;16.20;99.90
40255;DHT22;25973;52.368;4.940;2022-09-16T07:16:08;16.20;99.90
40255;DHT22;25973;52.368;4.940;2022-09-16T07:18:34;16.20;99.90
40255;DHT22;25973;52.368;4.940;2022-09-16T07:21:11;16.00;99.90
40255;DHT22;25973;52.368;4.940;2022-09-16T07:23:38;15.80;99.90
40255;DHT22;25973;52.368;4.940;2022-09-16T07:26:09;15.70;99.90
40255;DHT22;25973;52.368;4.940;2022-09-16T07:28:35;15.50;99.90
40255;DHT22;25973;52.368;4.940;2022-09-16T07:31:06;15.50;99.90
40255;DHT22;25973;52.368;4.940;2022-09-16T07:33:39;15.40;99.90
40255;DHT22;25973;52.368;4.940;2022-09-16T07:36:06;15.30;99.90
40255;DHT22;25973;52.368;4.940;2022-09-16T07:38:32;15.20;99.90
40255;DHT22;25973;52.368;4.940;2022-09-16T07:41:06;15.20;99.90
40255;DHT22;25973;52.368;4.940;2022-09-16T07:43:32;15.10;99.90
40255;DHT22;25973;52.368;4.940;2022-09-16T07:45:58;15.20;99.90
40255;DHT22;25973;52.368;4.940;2022-09-16T07:48:24;15.40;99.90
40255;DHT22;25973;52.368;4.940;2022-09-16T07:50:57;15.90;99.90
40255;DHT22;25973;52.368;4.940;2022-09-16T07:53:24;16.40;99.90
40255;DHT22;25973;52.368;4.940;2022-09-16T07:55:52;16.80;99.90
40255;DHT22;25973;52.368;4.940;2022-09-16T07:58:18;17.30;99.90
40255;DHT22;25973;52.368;4.940;2022-09-16T08:00:44;17.70;99.90
40255;DHT22;25973;52.368;4.940;2022-09-16T08:03:10;18.20;99.90
40255;DHT22;25973;52.368;4.940;2022-09-16T08:05:35;18.70;99.90
40255;DHT22;25973;52.368;4.940;2022-09-16T08:08:01;19.10;99.90
40255;DHT22;25973;52.368;4.940;2022-09-16T08:10:27;19.50;99.90
40255;DHT22;25973;52.368;4.940;2022-09-16T08:12:52;19.80;99.90
40255;DHT22;25973;52.368;4.940;2022-09-16T08:15:18;20.20;99.90
40255;DHT22;25973;52.368;4.940;2022-09-16T08:17:43;20.50;99.90
40255;DHT22;25973;52.368;4.940;2022-09-16T08:20:09;20.50;99.90
40255;DHT22;25973;52.368;4.940;2022-09-16T08:22:34;20.40;99.90
40255;DHT22;25973;52.368;4.940;2022-09-16T08:25:00;20.20;99.90
40255;DHT22;25973;52.368;4.940;2022-09-16T08:27:25;19.90;99.90
40255;DHT22;25973;52.368;4.940;2022-09-16T08:29:52;19.50;99.90
40255;DHT22;25973;52.368;4.940;2022-09-16T08:32:17;19.20;99.90
40255;DHT22;25973;52.368;4.940;2022-09-16T08:34:43;18.90;99.90
40255;DHT22;25973;52.368;4.940;2022-09-16T08:37:08;18.50;99.90
40255;DHT22;25973;52.368;4.940;2022-09-16T08:39:34;18.10;99.90
40255;DHT22;25973;52.368;4.940;2022-09-16T08:42:27;17.70;99.90
40255;DHT22;25973;52.368;4.940;2022-09-16T08:48:04;17.10;99.90
40255;DHT22;25973;52.368;4.940;2022-09-16T08:50:38;16.90;99.90
40255;DHT22;25973;52.368;4.940;2022-09-16T08:53:23;16.60;99.90
40255;DHT22;25973;52.368;4.940;2022-09-16T08:55:52;16.30;99.90
40255;DHT22;25973;52.368;4.940;2022-09-16T08:58:21;16.00;99.90
40255;DHT22;25973;52.368;4.940;2022-09-16T09:03:45;15.50;99.90
40255;DHT22;25973;52.368;4.940;2022-09-16T09:12:05;15.20;99.90
40255;DHT22;25973;52.368;4.940;2022-09-16T09:14:51;15.20;99.90
40255;DHT22;25973;52.368;4.940;2022-09-16T09:20:33;15.60;99.90
40255;DHT22;25973;52.368;4.940;2022-09-16T09:26:07;16.60;99.90
40255;DHT22;25973;52.368;4.940;2022-09-16T09:31:34;16.50;99.90
40255;DHT22;25973;52.368;4.940;2022-09-16T09:34:34;16.30;99.90
40255;DHT22;25973;52.368;4.940;2022-09-16T09:40:22;15.80;99.90
40255;DHT22;25973;52.368;4.940;2022-09-16T09:48:47;15.60;99.90
40255;DHT22;25973;52.368;4.940;2022-09-16T09:51:38;16.00;99.90
40255;DHT22;25973;52.368;4.940;2022-09-16T09:54:27;16.90;99.90
40255;DHT22;25973;52.368;4.940;2022-09-16T09:57:01;18.30;99.90
40255;DHT22;25973;52.368;4.940;2022-09-16T10:02:02;21.20;99.90
40255;DHT22;25973;52.368;4.940;2022-09-16T10:04:38;21.10;99.90
40255;DHT22;25973;52.368;4.940;2022-09-16T10:07:04;20.80;99.90
40255;DHT22;25973;52.368;4.940;2022-09-16T10:09:31;20.40;99.90
40255;DHT22;25973;52.368;4.940;2022-09-16T10:11:58;20.00;99.90
40255;DHT22;25973;52.368;4.940;2022-09-16T10:14:26;20.20;99.90
40255;DHT22;25973;52.368;4.940;2022-09-16T10:16:54;21.40;99.90
40255;DHT22;25973;52.368;4.940;2022-09-16T10:19:22;21.60;99.90
40255;DHT22;25973;52.368;4.940;2022-09-16T10:21:54;21.20;99.90
40255;DHT22;25973;52.368;4.940;2022-09-16T10:24:33;20.70;99.90
40255;DHT22;25973;52.368;4.940;2022-09-16T10:27:01;20.10;99.90
40255;DHT22;25973;52.368;4.940;2022-09-16T10:29:27;19.70;99.90
40255;DHT22;25973;52.368;4.940;2022-09-16T10:31:54;19.30;99.90
40255;DHT22;25973;52.368;4.940;2022-09-16T10:34:30;19.00;99.90
40255;DHT22;25973;52.368;4.940;2022-09-16T10:39:48;18.50;99.90
40255;DHT22;25973;52.368;4.940;2022-09-16T10:42:26;18.30;99.90
40255;DHT22;25973;52.368;4.940;2022-09-16T10:44:57;18.10;99.90
40255;DHT22;25973;52.368;4.940;2022-09-16T10:47:26;17.90;99.90
40255;DHT22;25973;52.368;4.940;2022-09-16T10:50:01;17.50;99.90
40255;DHT22;25973;52.368;4.940;2022-09-16T10:52:40;17.10;99.90
40255;DHT22;25973;52.368;4.940;2022-09-16T10:57:44;16.30;99.90
40255;DHT22;25973;52.368;4.940;2022-09-16T11:00:14;16.00;99.90
40255;DHT22;25973;52.368;4.940;2022-09-16T11:03:12;15.80;99.90
40255;DHT22;25973;52.368;4.940;2022-09-16T11:08:45;15.50;99.90
40255;DHT22;25973;52.368;4.940;2022-09-16T11:14:03;15.40;99.90
40255;DHT22;25973;52.368;4.940;2022-09-16T11:17:19;15.60;99.90
40255;DHT22;25973;52.368;4.940;2022-09-16T11:22:42;16.80;99.90
40255;DHT22;25973;52.368;4.940;2022-09-16T11:33:29;17.40;99.90
40255;DHT22;25973;52.368;4.940;2022-09-16T11:38:55;17.90;99.90
40255;DHT22;25973;52.368;4.940;2022-09-16T11:52:40;17.70;99.90
40255;DHT22;25973;52.368;4.940;2022-09-16T11:58:04;17.60;99.90
40255;DHT22;25973;52.368;4.940;2022-09-16T12:00:33;17.60;99.90
40255;DHT22;25973;52.368;4.940;2022-09-16T12:03:29;17.60;99.90
40255;DHT22;25973;52.368;4.940;2022-09-16T12:06:07;17.60;99.90
40255;DHT22;25973;52.368;4.940;2022-09-16T12:08:57;17.50;99.90
40255;DHT22;25973;52.368;4.940;2022-09-16T12:11:34;17.40;99.90
40255;DHT22;25973;52.368;4.940;2022-09-16T12:14:19;17.30;99.90
40255;DHT22;25973;52.368;4.940;2022-09-16T12:16:55;17.30;99.90
40255;DHT22;25973;52.368;4.940;2022-09-16T12:19:40;17.30;99.90
40255;DHT22;25973;52.368;4.940;2022-09-16T12:22:28;17.30;99.90
40255;DHT22;25973;52.368;4.940;2022-09-16T12:25:01;17.40;99.90
40255;DHT22;25973;52.368;4.940;2022-09-16T12:27:50;17.40;99.90
40255;DHT22;25973;52.368;4.940;2022-09-16T12:30:22;17.40;99.90
40255;DHT22;25973;52.368;4.940;2022-09-16T12:33:25;17.30;99.90
40255;DHT22;25973;52.368;4.940;2022-09-16T12:35:55;17.30;99.90
40255;DHT22;25973;52.368;4.940;2022-09-16T12:38:22;17.20;99.90
40255;DHT22;25973;52.368;4.940;2022-09-16T12:41:22;17.20;99.90
40255;DHT22;25973;52.368;4.940;2022-09-16T12:47:18;17.50;99.90
40255;DHT22;25973;52.368;4.940;2022-09-16T12:52:51;17.50;99.90
40255;DHT22;25973;52.368;4.940;2022-09-16T12:58:43;17.50;99.90
40255;DHT22;25973;52.368;4.940;2022-09-16T13:04:20;17.30;99.90
40255;DHT22;25973;52.368;4.940;2022-09-16T13:06:48;17.30;99.90
40255;DHT22;25973;52.368;4.940;2022-09-16T13:11:59;17.30;99.90
40255;DHT22;25973;52.368;4.940;2022-09-16T13:14:45;17.40;99.90
40255;DHT22;25973;52.368;4.940;2022-09-16T13:17:11;17.30;99.90
40255;DHT22;25973;52.368;4.940;2022-09-16T13:24:37;17.20;99.90
40255;DHT22;25973;52.368;4.940;2022-09-16T13:27:29;17.20;99.90
40255;DHT22;25973;52.368;4.940;2022-09-16T13:32:39;16.90;99.90
40255;DHT22;25973;52.368;4.940;2022-09-16T13:38:19;16.80;99.90
40255;DHT22;25973;52.368;4.940;2022-09-16T13:40:53;16.70;99.90
40255;DHT22;25973;52.368;4.940;2022-09-16T13:43:32;16.70;99.90
40255;DHT22;25973;52.368;4.940;2022-09-16T13:46:06;16.70;99.90
40255;DHT22;25973;52.368;4.940;2022-09-16T13:48:45;16.60;99.90
40255;DHT22;25973;52.368;4.940;2022-09-16T13:51:19;16.60;99.90
40255;DHT22;25973;52.368;4.940;2022-09-16T13:53:48;16.60;99.90
40255;DHT22;25973;52.368;4.940;2022-09-16T14:02:16;16.60;99.90
40255;DHT22;25973;52.368;4.940;2022-09-16T14:10:58;16.70;99.90
40255;DHT22;25973;52.368;4.940;2022-09-16T14:13:35;16.70;99.90
40255;DHT22;25973;52.368;4.940;2022-09-16T14:16:01;16.60;99.90
40255;DHT22;25973;52.368;4.940;2022-09-16T14:18:29;16.60;99.90
40255;DHT22;25973;52.368;4.940;2022-09-16T14:21:18;16.60;99.90
40255;DHT22;25973;52.368;4.940;2022-09-16T14:23:45;16.60;99.90
40255;DHT22;25973;52.368;4.940;2022-09-16T14:26:12;16.70;99.90
40255;DHT22;25973;52.368;4.940;2022-09-16T14:28:39;16.70;99.90
40255;DHT22;25973;52.368;4.940;2022-09-16T14:31:26;16.80;99.90
40255;DHT22;25973;52.368;4.940;2022-09-16T14:33:56;16.80;99.90
40255;DHT22;25973;52.368;4.940;2022-09-16T14:36:29;17.00;99.90
40255;DHT22;25973;52.368;4.940;2022-09-16T14:38:59;17.10;99.90
40255;DHT22;25973;52.368;4.940;2022-09-16T14:41:35;17.20;99.90
40255;DHT22;25973;52.368;4.940;2022-09-16T14:44:09;17.20;99.90
40255;DHT22;25973;52.368;4.940;2022-09-16T14:46:41;17.20;99.90
40255;DHT22;25973;52.368;4.940;2022-09-16T14:49:10;17.10;99.90
40255;DHT22;25973;52.368;4.940;2022-09-16T14:51:38;17.10;99.90
40255;DHT22;25973;52.368;4.940;2022-09-16T14:54:18;17.00;99.90
40255;DHT22;25973;52.368;4.940;2022-09-16T14:59:19;17.00;99.90
40255;DHT22;25973;52.368;4.940;2022-09-16T15:01:46;17.00;99.90
40255;DHT22;25973;52.368;4.940;2022-09-16T15:04:23;17.00;99.90
40255;DHT22;25973;52.368;4.940;2022-09-16T15:06:52;17.00;99.90
40255;DHT22;25973;52.368;4.940;2022-09-16T15:11:54;17.00;99.90
40255;DHT22;25973;52.368;4.940;2022-09-16T15:14:20;16.90;99.90
40255;DHT22;25973;52.368;4.940;2022-09-16T15:16:49;16.80;99.90
40255;DHT22;25973;52.368;4.940;2022-09-16T15:19:19;16.80;99.90
40255;DHT22;25973;52.368;4.940;2022-09-16T15:21:46;16.70;99.90
40255;DHT22;25973;52.368;4.940;2022-09-16T15:24:19;16.60;99.90
40255;DHT22;25973;52.368;4.940;2022-09-16T15:26:46;16.50;99.90
40255;DHT22;25973;52.368;4.940;2022-09-16T15:29:34;16.50;99.90
40255;DHT22;25973;52.368;4.940;2022-09-16T15:32:41;16.40;99.90
40255;DHT22;25973;52.368;4.940;2022-09-16T15:35:33;16.40;99.90
40255;DHT22;25973;52.368;4.940;2022-09-16T15:38:10;16.40;99.90
40255;DHT22;25973;52.368;4.940;2022-09-16T15:40:38;16.40;99.90
40255;DHT22;25973;52.368;4.940;2022-09-16T15:43:17;16.40;99.90
40255;DHT22;25973;52.368;4.940;2022-09-16T15:45:59;16.30;99.90
40255;DHT22;25973;52.368;4.940;2022-09-16T15:48:30;16.30;99.90
40255;DHT22;25973;52.368;4.940;2022-09-16T15:53:47;16.30;99.90
40255;DHT22;25973;52.368;4.940;2022-09-16T15:59:18;16.30;99.90
40255;DHT22;25973;52.368;4.940;2022-09-16T16:01:45;16.20;99.90
40255;DHT22;25973;52.368;4.940;2022-09-16T16:04:12;16.30;99.90
40255;DHT22;25973;52.368;4.940;2022-09-16T16:07:04;16.30;99.90
40255;DHT22;25973;52.368;4.940;2022-09-16T16:09:41;16.20;99.90
40255;DHT22;25973;52.368;4.940;2022-09-16T16:14:35;16.00;99.90
40255;DHT22;25973;52.368;4.940;2022-09-16T16:17:04;16.00;99.90
40255;DHT22;25973;52.368;4.940;2022-09-16T16:19:30;16.00;99.90
40255;DHT22;25973;52.368;4.940;2022-09-16T16:21:56;16.00;99.90
40255;DHT22;25973;52.368;4.940;2022-09-16T16:24:23;16.00;99.90
40255;DHT22;25973;52.368;4.940;2022-09-16T16:26:49;15.90;99.90
40255;DHT22;25973;52.368;4.940;2022-09-16T16:29:15;16.00;99.90
40255;DHT22;25973;52.368;4.940;2022-09-16T16:32:06;15.90;99.90
40255;DHT22;25973;52.368;4.940;2022-09-16T16:34:38;15.90;99.90
40255;DHT22;25973;52.368;4.940;2022-09-16T16:37:04;15.90;99.90
40255;DHT22;25973;52.368;4.940;2022-09-16T16:39:30;15.90;99.90
40255;DHT22;25973;52.368;4.940;2022-09-16T16:41:56;15.80;99.90
40255;DHT22;25973;52.368;4.940;2022-09-16T16:44:22;15.80;99.90
40255;DHT22;25973;52.368;4.940;2022-09-16T16:46:50;15.80;99.90
40255;DHT22;25973;52.368;4.940;2022-09-16T16:49:16;15.80;99.90
40255;DHT22;25973;52.368;4.940;2022-09-16T16:51:42;15.80;99.90
40255;DHT22;25973;52.368;4.940;2022-09-16T16:54:10;15.80;99.90
40255;DHT22;25973;52.368;4.940;2022-09-16T16:56:36;15.80;99.90
40255;DHT22;25973;52.368;4.940;2022-09-16T16:59:05;15.80;99.90
40255;DHT22;25973;52.368;4.940;2022-09-16T17:01:30;15.70;99.90
40255;DHT22;25973;52.368;4.940;2022-09-16T17:03:56;15.70;99.90
40255;DHT22;25973;52.368;4.940;2022-09-16T17:06:22;15.70;99.90
40255;DHT22;25973;52.368;4.940;2022-09-16T17:08:48;15.60;99.90
40255;DHT22;25973;52.368;4.940;2022-09-16T17:11:16;15.60;99.90
40255;DHT22;25973;52.368;4.940;2022-09-16T17:13:44;15.60;99.90
40255;DHT22;25973;52.368;4.940;2022-09-16T17:16:11;15.60;99.90
40255;DHT22;25973;52.368;4.940;2022-09-16T17:18:39;15.50;99.90
40255;DHT22;25973;52.368;4.940;2022-09-16T17:21:11;15.50;99.90
40255;DHT22;25973;52.368;4.940;2022-09-16T17:23:37;15.50;99.90
40255;DHT22;25973;52.368;4.940;2022-09-16T17:26:04;15.40;99.90
40255;DHT22;25973;52.368;4.940;2022-09-16T17:28:30;15.30;99.90
40255;DHT22;25973;52.368;4.940;2022-09-16T17:30:55;15.20;99.90
40255;DHT22;25973;52.368;4.940;2022-09-16T17:33:21;15.10;99.90
40255;DHT22;25973;52.368;4.940;2022-09-16T17:36:01;15.10;99.90
40255;DHT22;25973;52.368;4.940;2022-09-16T17:38:27;15.00;99.90
40255;DHT22;25973;52.368;4.940;2022-09-16T17:41:00;14.90;99.90
40255;DHT22;25973;52.368;4.940;2022-09-16T17:43:25;14.80;99.90
40255;DHT22;25973;52.368;4.940;2022-09-16T17:45:51;14.70;99.90
40255;DHT22;25973;52.368;4.940;2022-09-16T17:48:17;14.70;99.90
40255;DHT22;25973;52.368;4.940;2022-09-16T17:50:43;14.60;99.90
40255;DHT22;25973;52.368;4.940;2022-09-16T17:53:08;14.60;99.90
40255;DHT22;25973;52.368;4.940;2022-09-16T17:55:34;14.60;99.90
40255;DHT22;25973;52.368;4.940;2022-09-16T17:58:00;14.70;99.90
40255;DHT22;25973;52.368;4.940;2022-09-16T18:00:25;14.70;99.90
40255;DHT22;25973;52.368;4.940;2022-09-16T18:02:51;14.60;99.90
40255;DHT22;25973;52.368;4.940;2022-09-16T18:05:17;14.70;99.90
40255;DHT22;25973;52.368;4.940;2022-09-16T18:07:45;14.70;99.90
40255;DHT22;25973;52.368;4.940;2022-09-16T18:10:11;14.70;99.90
40255;DHT22;25973;52.368;4.940;2022-09-16T18:12:36;14.80;99.90
40255;DHT22;25973;52.368;4.940;2022-09-16T18:15:02;14.80;99.90
40255;DHT22;25973;52.368;4.940;2022-09-16T18:17:30;14.80;99.90
40255;DHT22;25973;52.368;4.940;2022-09-16T18:19:56;14.80;99.90
40255;DHT22;25973;52.368;4.940;2022-09-16T18:22:21;14.90;99.90
40255;DHT22;25973;52.368;4.940;2022-09-16T18:24:47;14.90;99.90
40255;DHT22;25973;52.368;4.940;2022-09-16T18:27:13;14.90;99.90
40255;DHT22;25973;52.368;4.940;2022-09-16T18:29:38;15.00;99.90
40255;DHT22;25973;52.368;4.940;2022-09-16T18:32:06;15.00;99.90
40255;DHT22;25973;52.368;4.940;2022-09-16T18:34:31;15.10;99.90